sensor_id;sensor_type;location;lat;lon;timestamp;temperature;humidity
44775;DHT22;31340;51.402;0.016;2023-03-30T00:00:17;13.80;99.90
44775;DHT22;31340;51.402;0.016;2023-03-30T00:02:48;13.80;99.90
44775;DHT22;31340;51.402;0.016;2023-03-30T00:05:17;13.80;99.90
44775;DHT22;31340;51.402;0.016;2023-03-30T00:07:46;13.80;99.90
44775;DHT22;31340;51.402;0.016;2023-03-30T00:10:17;13.70;99.90
44775;DHT22;31340;51.402;0.016;2023-03-30T00:12:47;13.80;99.90
44775;DHT22;31340;51.402;0.016;2023-03-30T00:15:19;13.80;99.90
44775;DHT22;31340;51.402;0.016;2023-03-30T00:17:47;13.80;99.90
44775;DHT22;31340;51.402;0.016;2023-03-30T00:20:15;13.80;99.90
44775;DHT22;31340;51.402;0.016;2023-03-30T00:22:44;13.70;99.90
44775;DHT22;31340;51.402;0.016;2023-03-30T00:25:15;13.70;99.90
44775;DHT22;31340;51.402;0.016;2023-03-30T00:27:43;13.70;99.90
44775;DHT22;31340;51.402;0.016;2023-03-30T00:30:15;13.80;99.90
44775;DHT22;31340;51.402;0.016;2023-03-30T00:32:44;13.70;99.90
44775;DHT22;31340;51.402;0.016;2023-03-30T00:35:14;13.70;99.90
44775;DHT22;31340;51.402;0.016;2023-03-30T00:37:42;13.70;99.90
44775;DHT22;31340;51.402;0.016;2023-03-30T00:40:16;13.70;99.90
44775;DHT22;31340;51.402;0.016;2023-03-30T00:42:43;13.70;99.90
44775;DHT22;31340;51.402;0.016;2023-03-30T00:45:54;13.70;99.90
44775;DHT22;31340;51.402;0.016;2023-03-30T00:48:06;13.60;99.90
44775;DHT22;31340;51.402;0.016;2023-03-30T00:50:50;13.60;99.90
44775;DHT22;31340;51.402;0.016;2023-03-30T00:53:26;13.60;99.90
44775;DHT22;31340;51.402;0.016;2023-03-30T00:55:55;13.50;99.90
44775;DHT22;31340;51.402;0.016;2023-03-30T00:58:24;13.60;99.90
44775;DHT22;31340;51.402;0.016;2023-03-30T01:00:52;13.60;99.90
44775;DHT22;31340;51.402;0.016;2023-03-30T01:05:51;13.50;99.90
44775;DHT22;31340;51.402;0.016;2023-03-30T01:08:20;13.50;99.90
44775;DHT22;31340;51.402;0.016;2023-03-30T01:10:50;13.50;99.90
44775;DHT22;31340;51.402;0.016;2023-03-30T01:13:19;13.50;99.90
44775;DHT22;31340;51.402;0.016;2023-03-30T01:19:03;13.50;99.90
44775;DHT22;31340;51.402;0.016;2023-03-30T01:24:53;13.50;99.90
44775;DHT22;31340;51.402;0.016;2023-03-30T01:33:29;13.40;99.90
44775;DHT22;31340;51.402;0.016;2023-03-30T01:36:13;13.40;99.90
44775;DHT22;31340;51.402;0.016;2023-03-30T01:44:42;13.40;99.90
44775;DHT22;31340;51.402;0.016;2023-03-30T01:47:38;13.30;99.90
44775;DHT22;31340;51.402;0.016;2023-03-30T01:50:26;13.30;99.90
44775;DHT22;31340;51.402;0.016;2023-03-30T01:53:22;13.30;99.90
44775;DHT22;31340;51.402;0.016;2023-03-30T01:55:56;13.30;99.90
44775;DHT22;31340;51.402;0.016;2023-03-30T02:00:59;13.30;99.90
44775;DHT22;31340;51.402;0.016;2023-03-30T02:03:30;13.30;99.90
44775;DHT22;31340;51.402;0.016;2023-03-30T02:06:04;13.30;99.90
44775;DHT22;31340;51.402;0.016;2023-03-30T02:08:36;13.30;99.90
44775;DHT22;31340;51.402;0.016;2023-03-30T02:11:05;13.30;99.90
44775;DHT22;31340;51.402;0.016;2023-03-30T02:13:35;13.30;99.90
44775;DHT22;31340;51.402;0.016;2023-03-30T02:16:16;13.30;99.90
44775;DHT22;31340;51.402;0.016;2023-03-30T02:18:45;13.20;99.90
44775;DHT22;31340;51.402;0.016;2023-03-30T02:21:12;13.20;99.90
44775;DHT22;31340;51.402;0.016;2023-03-30T02:23:43;13.20;99.90
44775;DHT22;31340;51.402;0.016;2023-03-30T02:26:12;13.20;99.90
44775;DHT22;31340;51.402;0.016;2023-03-30T02:28:40;13.20;99.90
44775;DHT22;31340;51.402;0.016;2023-03-30T02:31:13;13.20;99.90
44775;DHT22;31340;51.402;0.016;2023-03-30T02:42:11;13.10;99.90
44775;DHT22;31340;51.402;0.016;2023-03-30T02:47:54;13.00;99.90
44775;DHT22;31340;51.402;0.016;2023-03-30T02:50:32;13.00;99.90
44775;DHT22;31340;51.402;0.016;2023-03-30T02:58:54;13.00;99.90
44775;DHT22;31340;51.402;0.016;2023-03-30T03:04:12;12.90;99.90
44775;DHT22;31340;51.402;0.016;2023-03-30T03:06:59;12.90;99.90
44775;DHT22;31340;51.402;0.016;2023-03-30T03:09:29;12.90;99.90
44775;DHT22;31340;51.402;0.016;2023-03-30T03:11:57;12.90;99.90
44775;DHT22;31340;51.402;0.016;2023-03-30T03:14:29;12.90;99.90
44775;DHT22;31340;51.402;0.016;2023-03-30T03:16:57;12.90;99.90
44775;DHT22;31340;51.402;0.016;2023-03-30T03:19:32;12.90;99.90
44775;DHT22;31340;51.402;0.016;2023-03-30T03:22:01;12.80;99.90
44775;DHT22;31340;51.402;0.016;2023-03-30T03:24:32;12.80;99.90
44775;DHT22;31340;51.402;0.016;2023-03-30T03:27:38;12.80;99.90
44775;DHT22;31340;51.402;0.016;2023-03-30T03:30:18;12.80;99.90
44775;DHT22;31340;51.402;0.016;2023-03-30T03:32:54;12.80;99.90
44775;DHT22;31340;51.402;0.016;2023-03-30T03:35:26;12.70;99.90
44775;DHT22;31340;51.402;0.016;2023-03-30T03:37:57;12.70;99.90
44775;DHT22;31340;51.402;0.016;2023-03-30T03:40:24;12.70;99.90
44775;DHT22;31340;51.402;0.016;2023-03-30T03:42:53;12.60;99.90
44775;DHT22;31340;51.402;0.016;2023-03-30T03:45:20;12.60;99.90
44775;DHT22;31340;51.402;0.016;2023-03-30T03:47:54;12.60;99.90
44775;DHT22;31340;51.402;0.016;2023-03-30T03:50:39;12.60;99.90
44775;DHT22;31340;51.402;0.016;2023-03-30T03:53:09;12.60;99.90
44775;DHT22;31340;51.402;0.016;2023-03-30T03:55:36;12.60;99.90
44775;DHT22;31340;51.402;0.016;2023-03-30T03:58:05;12.60;99.90
44775;DHT22;31340;51.402;0.016;2023-03-30T04:00:33;12.50;99.90
44775;DHT22;31340;51.402;0.016;2023-03-30T04:03:01;12.50;99.90
44775;DHT22;31340;51.402;0.016;2023-03-30T04:05:31;12.50;99.90
44775;DHT22;31340;51.402;0.016;2023-03-30T04:07:59;12.50;99.90
44775;DHT22;31340;51.402;0.016;2023-03-30T04:10:26;12.50;99.90
44775;DHT22;31340;51.402;0.016;2023-03-30T04:13:12;12.50;99.90
44775;DHT22;31340;51.402;0.016;2023-03-30T04:15:51;12.40;99.90
44775;DHT22;31340;51.402;0.016;2023-03-30T04:18:37;12.40;99.90
44775;DHT22;31340;51.402;0.016;2023-03-30T04:21:34;12.40;99.90
44775;DHT22;31340;51.402;0.016;2023-03-30T04:24:33;12.30;99.90
44775;DHT22;31340;51.402;0.016;2023-03-30T04:27:31;12.30;99.90
44775;DHT22;31340;51.402;0.016;2023-03-30T04:30:27;12.30;99.90
44775;DHT22;31340;51.402;0.016;2023-03-30T04:33:15;12.30;99.90
44775;DHT22;31340;51.402;0.016;2023-03-30T04:35:46;12.30;99.90
44775;DHT22;31340;51.402;0.016;2023-03-30T04:38:32;12.30;99.90
44775;DHT22;31340;51.402;0.016;2023-03-30T04:41:30;12.20;99.90
44775;DHT22;31340;51.402;0.016;2023-03-30T04:44:20;12.20;99.90
44775;DHT22;31340;51.402;0.016;2023-03-30T04:47:12;12.20;99.90
44775;DHT22;31340;51.402;0.016;2023-03-30T04:49:48;12.10;99.90
44775;DHT22;31340;51.402;0.016;2023-03-30T04:52:34;12.10;99.90
44775;DHT22;31340;51.402;0.016;2023-03-30T04:55:20;12.10;99.90
44775;DHT22;31340;51.402;0.016;2023-03-30T04:58:10;12.10;99.90
44775;DHT22;31340;51.402;0.016;2023-03-30T05:00:51;12.10;99.90
44775;DHT22;31340;51.402;0.016;2023-03-30T05:03:46;12.00;99.90
44775;DHT22;31340;51.402;0.016;2023-03-30T05:06:53;12.00;99.90
44775;DHT22;31340;51.402;0.016;2023-03-30T05:09:40;12.00;99.90
44775;DHT22;31340;51.402;0.016;2023-03-30T05:12:28;11.90;99.90
44775;DHT22;31340;51.402;0.016;2023-03-30T05:15:13;11.90;99.90
44775;DHT22;31340;51.402;0.016;2023-03-30T05:18:09;11.90;99.90
44775;DHT22;31340;51.402;0.016;2023-03-30T05:21:00;11.90;99.90
44775;DHT22;31340;51.402;0.016;2023-03-30T05:23:47;11.90;99.90
44775;DHT22;31340;51.402;0.016;2023-03-30T05:26:34;11.80;99.90
44775;DHT22;31340;51.402;0.016;2023-03-30T05:29:21;11.80;99.90
44775;DHT22;31340;51.402;0.016;2023-03-30T05:31:57;11.80;99.90
44775;DHT22;31340;51.402;0.016;2023-03-30T05:34:43;11.80;99.90
44775;DHT22;31340;51.402;0.016;2023-03-30T05:37:26;11.80;99.90
44775;DHT22;31340;51.402;0.016;2023-03-30T05:40:12;11.80;99.90
44775;DHT22;31340;51.402;0.016;2023-03-30T05:42:52;11.80;99.90
44775;DHT22;31340;51.402;0.016;2023-03-30T05:45:32;11.80;99.90
44775;DHT22;31340;51.402;0.016;2023-03-30T05:48:25;11.80;99.90
44775;DHT22;31340;51.402;0.016;2023-03-30T05:51:15;11.80;99.90
44775;DHT22;31340;51.402;0.016;2023-03-30T05:54:18;11.80;99.90
44775;DHT22;31340;51.402;0.016;2023-03-30T05:57:08;11.80;99.90
44775;DHT22;31340;51.402;0.016;2023-03-30T06:00:05;11.80;99.90
44775;DHT22;31340;51.402;0.016;2023-03-30T06:02:51;11.80;99.90
44775;DHT22;31340;51.402;0.016;2023-03-30T06:05:21;11.80;99.90
44775;DHT22;31340;51.402;0.016;2023-03-30T06:07:49;11.80;99.90
44775;DHT22;31340;51.402;0.016;2023-03-30T06:10:17;11.70;99.90
44775;DHT22;31340;51.402;0.016;2023-03-30T06:12:47;11.80;99.90
44775;DHT22;31340;51.402;0.016;2023-03-30T06:15:27;11.80;99.90
44775;DHT22;31340;51.402;0.016;2023-03-30T06:18:04;11.80;99.90
44775;DHT22;31340;51.402;0.016;2023-03-30T06:20:35;11.90;99.90
44775;DHT22;31340;51.402;0.016;2023-03-30T06:23:03;11.90;99.90
44775;DHT22;31340;51.402;0.016;2023-03-30T06:25:30;11.90;99.90
44775;DHT22;31340;51.402;0.016;2023-03-30T06:27:58;11.90;99.90
44775;DHT22;31340;51.402;0.016;2023-03-30T06:30:26;12.00;99.90
44775;DHT22;31340;51.402;0.016;2023-03-30T06:32:57;12.00;99.90
44775;DHT22;31340;51.402;0.016;2023-03-30T06:35:35;12.00;99.90
44775;DHT22;31340;51.402;0.016;2023-03-30T06:38:03;12.00;99.90
44775;DHT22;31340;51.402;0.016;2023-03-30T06:40:31;11.90;99.90
44775;DHT22;31340;51.402;0.016;2023-03-30T06:42:59;12.00;99.90
44775;DHT22;31340;51.402;0.016;2023-03-30T06:45:35;12.10;99.90
44775;DHT22;31340;51.402;0.016;2023-03-30T06:48:03;12.00;99.90
44775;DHT22;31340;51.402;0.016;2023-03-30T06:50:34;12.10;99.90
44775;DHT22;31340;51.402;0.016;2023-03-30T06:53:06;12.20;99.90
44775;DHT22;31340;51.402;0.016;2023-03-30T06:55:43;12.20;99.90
44775;DHT22;31340;51.402;0.016;2023-03-30T06:58:18;12.20;99.90
44775;DHT22;31340;51.402;0.016;2023-03-30T07:00:46;12.30;99.90
44775;DHT22;31340;51.402;0.016;2023-03-30T07:03:39;12.30;99.90
44775;DHT22;31340;51.402;0.016;2023-03-30T07:06:19;12.40;99.90
44775;DHT22;31340;51.402;0.016;2023-03-30T07:08:48;12.40;99.90
44775;DHT22;31340;51.402;0.016;2023-03-30T07:11:21;12.50;99.90
44775;DHT22;31340;51.402;0.016;2023-03-30T07:13:50;12.50;99.90
44775;DHT22;31340;51.402;0.016;2023-03-30T07:16:18;12.60;99.90
44775;DHT22;31340;51.402;0.016;2023-03-30T07:18:46;12.60;99.90
44775;DHT22;31340;51.402;0.016;2023-03-30T07:21:14;12.70;99.90
44775;DHT22;31340;51.402;0.016;2023-03-30T07:23:42;12.80;99.90
44775;DHT22;31340;51.402;0.016;2023-03-30T07:26:21;12.90;99.90
44775;DHT22;31340;51.402;0.016;2023-03-30T07:28:54;12.90;99.90
44775;DHT22;31340;51.402;0.016;2023-03-30T07:31:24;13.00;99.90
44775;DHT22;31340;51.402;0.016;2023-03-30T07:33:52;13.00;99.90
44775;DHT22;31340;51.402;0.016;2023-03-30T07:36:24;13.00;99.90
44775;DHT22;31340;51.402;0.016;2023-03-30T07:38:52;13.10;99.90
44775;DHT22;31340;51.402;0.016;2023-03-30T07:41:20;13.10;99.90
44775;DHT22;31340;51.402;0.016;2023-03-30T07:43:52;13.20;99.90
44775;DHT22;31340;51.402;0.016;2023-03-30T07:46:19;13.20;99.90
44775;DHT22;31340;51.402;0.016;2023-03-30T07:48:52;13.20;99.90
44775;DHT22;31340;51.402;0.016;2023-03-30T07:51:20;13.30;99.90
44775;DHT22;31340;51.402;0.016;2023-03-30T07:53:57;13.30;99.90
44775;DHT22;31340;51.402;0.016;2023-03-30T07:56:33;13.30;99.90
44775;DHT22;31340;51.402;0.016;2023-03-30T07:59:05;13.40;99.90
44775;DHT22;31340;51.402;0.016;2023-03-30T08:01:37;13.40;99.90
44775;DHT22;31340;51.402;0.016;2023-03-30T08:04:15;13.40;99.90
44775;DHT22;31340;51.402;0.016;2023-03-30T08:06:44;13.50;99.90
44775;DHT22;31340;51.402;0.016;2023-03-30T08:09:31;13.50;99.90
44775;DHT22;31340;51.402;0.016;2023-03-30T08:11:58;13.50;99.90
44775;DHT22;31340;51.402;0.016;2023-03-30T08:14:26;13.50;99.90
44775;DHT22;31340;51.402;0.016;2023-03-30T08:16:54;13.50;99.90
44775;DHT22;31340;51.402;0.016;2023-03-30T08:19:23;13.50;99.90
44775;DHT22;31340;51.402;0.016;2023-03-30T08:21:51;13.50;99.90
44775;DHT22;31340;51.402;0.016;2023-03-30T08:24:18;13.50;99.90
44775;DHT22;31340;51.402;0.016;2023-03-30T08:26:46;13.60;99.90
44775;DHT22;31340;51.402;0.016;2023-03-30T08:29:13;13.60;99.90
44775;DHT22;31340;51.402;0.016;2023-03-30T08:31:40;13.60;99.90
44775;DHT22;31340;51.402;0.016;2023-03-30T08:34:08;13.60;99.90
44775;DHT22;31340;51.402;0.016;2023-03-30T08:36:36;13.70;99.90
44775;DHT22;31340;51.402;0.016;2023-03-30T08:39:04;13.70;99.90
44775;DHT22;31340;51.402;0.016;2023-03-30T08:44:36;13.70;99.90
44775;DHT22;31340;51.402;0.016;2023-03-30T08:47:13;13.80;99.90
44775;DHT22;31340;51.402;0.016;2023-03-30T08:50:00;13.80;99.90
44775;DHT22;31340;51.402;0.016;2023-03-30T08:52:31;13.90;99.90
44775;DHT22;31340;51.402;0.016;2023-03-30T08:55:00;14.00;99.90
44775;DHT22;31340;51.402;0.016;2023-03-30T08:57:40;14.10;99.90
44775;DHT22;31340;51.402;0.016;2023-03-30T09:00:47;14.20;99.90
44775;DHT22;31340;51.402;0.016;2023-03-30T09:03:30;14.20;99.90
44775;DHT22;31340;51.402;0.016;2023-03-30T09:06:08;14.20;99.90
44775;DHT22;31340;51.402;0.016;2023-03-30T09:08:38;14.30;99.90
44775;DHT22;31340;51.402;0.016;2023-03-30T09:11:12;14.40;99.90
44775;DHT22;31340;51.402;0.016;2023-03-30T09:13:42;14.40;99.90
44775;DHT22;31340;51.402;0.016;2023-03-30T09:16:19;14.40;99.90
44775;DHT22;31340;51.402;0.016;2023-03-30T09:18:53;14.50;99.90
44775;DHT22;31340;51.402;0.016;2023-03-30T09:21:27;14.60;99.90
44775;DHT22;31340;51.402;0.016;2023-03-30T09:23:57;14.60;99.90
44775;DHT22;31340;51.402;0.016;2023-03-30T09:26:38;14.70;99.90
44775;DHT22;31340;51.402;0.016;2023-03-30T09:29:17;14.70;99.90
44775;DHT22;31340;51.402;0.016;2023-03-30T09:31:50;14.70;99.90
44775;DHT22;31340;51.402;0.016;2023-03-30T09:34:39;14.70;99.90
44775;DHT22;31340;51.402;0.016;2023-03-30T09:37:12;14.80;99.90
44775;DHT22;31340;51.402;0.016;2023-03-30T09:39:39;14.90;99.90
44775;DHT22;31340;51.402;0.016;2023-03-30T09:45:00;14.90;99.90
44775;DHT22;31340;51.402;0.016;2023-03-30T09:47:37;15.00;99.90
44775;DHT22;31340;51.402;0.016;2023-03-30T09:50:08;15.00;99.90
44775;DHT22;31340;51.402;0.016;2023-03-30T09:52:38;15.00;99.90
44775;DHT22;31340;51.402;0.016;2023-03-30T09:58:13;15.00;99.90
44775;DHT22;31340;51.402;0.016;2023-03-30T10:00:45;14.90;99.90
44775;DHT22;31340;51.402;0.016;2023-03-30T10:03:21;14.90;99.90
44775;DHT22;31340;51.402;0.016;2023-03-30T10:08:54;14.90;99.90
44775;DHT22;31340;51.402;0.016;2023-03-30T10:14:29;15.00;99.90
44775;DHT22;31340;51.402;0.016;2023-03-30T10:16:59;15.00;99.90
44775;DHT22;31340;51.402;0.016;2023-03-30T10:19:27;15.00;99.90
44775;DHT22;31340;51.402;0.016;2023-03-30T10:21:57;15.10;99.90
44775;DHT22;31340;51.402;0.016;2023-03-30T10:24:27;15.10;99.90
44775;DHT22;31340;51.402;0.016;2023-03-30T10:26:57;15.20;99.90
44775;DHT22;31340;51.402;0.016;2023-03-30T10:29:27;15.30;99.90
44775;DHT22;31340;51.402;0.016;2023-03-30T10:32:02;15.30;99.90
44775;DHT22;31340;51.402;0.016;2023-03-30T10:34:41;15.40;99.90
44775;DHT22;31340;51.402;0.016;2023-03-30T10:37:13;15.40;99.90
44775;DHT22;31340;51.402;0.016;2023-03-30T10:39:45;15.40;99.90
44775;DHT22;31340;51.402;0.016;2023-03-30T10:42:17;15.40;99.90
44775;DHT22;31340;51.402;0.016;2023-03-30T10:44:57;15.50;99.90
44775;DHT22;31340;51.402;0.016;2023-03-30T10:55:42;15.70;99.90
44775;DHT22;31340;51.402;0.016;2023-03-30T10:58:45;15.60;99.90
44775;DHT22;31340;51.402;0.016;2023-03-30T11:01:28;15.80;99.90
44775;DHT22;31340;51.402;0.016;2023-03-30T11:04:05;15.80;99.90
44775;DHT22;31340;51.402;0.016;2023-03-30T11:06:50;15.80;99.90
44775;DHT22;31340;51.402;0.016;2023-03-30T11:09:24;15.80;99.90
44775;DHT22;31340;51.402;0.016;2023-03-30T11:11:59;15.70;99.90
44775;DHT22;31340;51.402;0.016;2023-03-30T11:14:39;15.70;99.90
44775;DHT22;31340;51.402;0.016;2023-03-30T11:17:19;15.70;99.90
44775;DHT22;31340;51.402;0.016;2023-03-30T11:19:54;15.70;99.90
44775;DHT22;31340;51.402;0.016;2023-03-30T11:25:00;15.70;99.90
44775;DHT22;31340;51.402;0.016;2023-03-30T11:27:35;15.80;99.90
44775;DHT22;31340;51.402;0.016;2023-03-30T11:30:19;15.90;99.90
44775;DHT22;31340;51.402;0.016;2023-03-30T11:33:18;16.00;99.90
44775;DHT22;31340;51.402;0.016;2023-03-30T11:35:54;16.20;99.90
44775;DHT22;31340;51.402;0.016;2023-03-30T11:38:51;16.30;99.90
44775;DHT22;31340;51.402;0.016;2023-03-30T11:41:39;16.40;99.90
44775;DHT22;31340;51.402;0.016;2023-03-30T11:44:09;16.60;99.90
44775;DHT22;31340;51.402;0.016;2023-03-30T12:03:43;16.80;99.90
44775;DHT22;31340;51.402;0.016;2023-03-30T12:06:28;16.80;99.90
44775;DHT22;31340;51.402;0.016;2023-03-30T12:11:45;16.90;99.90
44775;DHT22;31340;51.402;0.016;2023-03-30T12:17:16;16.90;99.90
44775;DHT22;31340;51.402;0.016;2023-03-30T12:19:58;16.90;99.90
44775;DHT22;31340;51.402;0.016;2023-03-30T12:22:40;16.90;99.90
44775;DHT22;31340;51.402;0.016;2023-03-30T12:25:23;17.00;99.90
44775;DHT22;31340;51.402;0.016;2023-03-30T12:27:58;17.10;99.90
44775;DHT22;31340;51.402;0.016;2023-03-30T12:30:32;17.10;99.90
44775;DHT22;31340;51.402;0.016;2023-03-30T12:35:57;17.30;99.90
44775;DHT22;31340;51.402;0.016;2023-03-30T12:38:37;17.40;99.90
44775;DHT22;31340;51.402;0.016;2023-03-30T12:41:13;17.60;99.80
44775;DHT22;31340;51.402;0.016;2023-03-30T12:46:47;18.00;99.30
44775;DHT22;31340;51.402;0.016;2023-03-30T12:49:27;18.20;99.10
44775;DHT22;31340;51.402;0.016;2023-03-30T13:06:20;18.90;96.90
44775;DHT22;31340;51.402;0.016;2023-03-30T13:08:53;19.00;97.30
44775;DHT22;31340;51.402;0.016;2023-03-30T13:11:22;19.00;97.00
44775;DHT22;31340;51.402;0.016;2023-03-30T13:13:58;19.00;96.70
44775;DHT22;31340;51.402;0.016;2023-03-30T13:16:46;19.00;96.40
44775;DHT22;31340;51.402;0.016;2023-03-30T13:25:23;19.00;96.00
44775;DHT22;31340;51.402;0.016;2023-03-30T13:27:50;19.00;96.00
44775;DHT22;31340;51.402;0.016;2023-03-30T13:30:19;18.90;96.20
44775;DHT22;31340;51.402;0.016;2023-03-30T13:33:01;18.90;96.30
44775;DHT22;31340;51.402;0.016;2023-03-30T13:36:13;18.90;96.30
44775;DHT22;31340;51.402;0.016;2023-03-30T13:38:57;18.90;96.40
44775;DHT22;31340;51.402;0.016;2023-03-30T13:52:42;18.70;95.70
44775;DHT22;31340;51.402;0.016;2023-03-30T13:55:22;18.70;95.70
44775;DHT22;31340;51.402;0.016;2023-03-30T13:57:55;18.60;95.70
44775;DHT22;31340;51.402;0.016;2023-03-30T14:00:36;18.70;95.90
44775;DHT22;31340;51.402;0.016;2023-03-30T14:03:30;18.90;96.00
44775;DHT22;31340;51.402;0.016;2023-03-30T14:06:05;19.10;96.20
44775;DHT22;31340;51.402;0.016;2023-03-30T14:08:37;19.20;96.20
44775;DHT22;31340;51.402;0.016;2023-03-30T14:11:13;19.30;96.40
44775;DHT22;31340;51.402;0.016;2023-03-30T14:13:43;19.40;96.20
44775;DHT22;31340;51.402;0.016;2023-03-30T14:16:27;19.50;95.70
44775;DHT22;31340;51.402;0.016;2023-03-30T14:19:24;19.80;95.00
44775;DHT22;31340;51.402;0.016;2023-03-30T14:22:20;19.80;94.40
44775;DHT22;31340;51.402;0.016;2023-03-30T14:25:00;19.80;93.50
44775;DHT22;31340;51.402;0.016;2023-03-30T14:27:34;19.70;93.60
44775;DHT22;31340;51.402;0.016;2023-03-30T14:30:16;19.60;93.60
44775;DHT22;31340;51.402;0.016;2023-03-30T14:32:45;19.60;93.70
44775;DHT22;31340;51.402;0.016;2023-03-30T14:35:16;19.50;94.00
44775;DHT22;31340;51.402;0.016;2023-03-30T14:37:45;19.40;93.80
44775;DHT22;31340;51.402;0.016;2023-03-30T14:40:19;19.40;93.70
44775;DHT22;31340;51.402;0.016;2023-03-30T14:42:50;19.30;93.70
44775;DHT22;31340;51.402;0.016;2023-03-30T14:45:18;19.30;93.80
44775;DHT22;31340;51.402;0.016;2023-03-30T14:47:46;19.30;94.20
44775;DHT22;31340;51.402;0.016;2023-03-30T14:50:15;19.30;94.20
44775;DHT22;31340;51.402;0.016;2023-03-30T14:52:45;19.20;94.20
44775;DHT22;31340;51.402;0.016;2023-03-30T14:55:19;19.20;94.10
44775;DHT22;31340;51.402;0.016;2023-03-30T14:57:49;19.40;93.90
44775;DHT22;31340;51.402;0.016;2023-03-30T15:00:19;19.50;93.80
44775;DHT22;31340;51.402;0.016;2023-03-30T15:02:52;19.50;93.40
44775;DHT22;31340;51.402;0.016;2023-03-30T15:05:23;19.60;93.30
44775;DHT22;31340;51.402;0.016;2023-03-30T15:07:51;19.70;92.90
44775;DHT22;31340;51.402;0.016;2023-03-30T15:12:56;20.10;92.70
44775;DHT22;31340;51.402;0.016;2023-03-30T15:15:29;20.30;92.20
44775;DHT22;31340;51.402;0.016;2023-03-30T15:17:59;20.50;92.20
44775;DHT22;31340;51.402;0.016;2023-03-30T15:20:29;20.80;91.80
44775;DHT22;31340;51.402;0.016;2023-03-30T15:22:58;21.00;91.00
44775;DHT22;31340;51.402;0.016;2023-03-30T15:25:30;21.00;90.60
44775;DHT22;31340;51.402;0.016;2023-03-30T15:28:19;21.10;90.40
44775;DHT22;31340;51.402;0.016;2023-03-30T15:30:51;21.10;90.20
44775;DHT22;31340;51.402;0.016;2023-03-30T15:33:20;21.20;90.20
44775;DHT22;31340;51.402;0.016;2023-03-30T15:35:51;21.20;90.30
44775;DHT22;31340;51.402;0.016;2023-03-30T15:38:28;21.20;90.10
44775;DHT22;31340;51.402;0.016;2023-03-30T15:40:56;21.20;89.60
44775;DHT22;31340;51.402;0.016;2023-03-30T15:43:29;21.00;89.70
44775;DHT22;31340;51.402;0.016;2023-03-30T15:46:04;21.10;89.20
44775;DHT22;31340;51.402;0.016;2023-03-30T15:48:46;21.10;88.60
44775;DHT22;31340;51.402;0.016;2023-03-30T15:51:25;21.00;88.50
44775;DHT22;31340;51.402;0.016;2023-03-30T15:54:13;20.70;88.30
44775;DHT22;31340;51.402;0.016;2023-03-30T15:59:29;20.30;89.10
44775;DHT22;31340;51.402;0.016;2023-03-30T16:02:34;20.00;89.40
44775;DHT22;31340;51.402;0.016;2023-03-30T16:04:50;20.00;90.00
44775;DHT22;31340;51.402;0.016;2023-03-30T16:07:20;19.80;90.00
44775;DHT22;31340;51.402;0.016;2023-03-30T16:09:49;19.70;90.10
44775;DHT22;31340;51.402;0.016;2023-03-30T16:12:24;19.60;90.20
44775;DHT22;31340;51.402;0.016;2023-03-30T16:14:53;19.60;90.00
44775;DHT22;31340;51.402;0.016;2023-03-30T16:17:21;19.50;90.00
44775;DHT22;31340;51.402;0.016;2023-03-30T16:19:49;19.50;90.10
44775;DHT22;31340;51.402;0.016;2023-03-30T16:22:17;19.50;89.90
44775;DHT22;31340;51.402;0.016;2023-03-30T16:24:44;19.50;90.10
44775;DHT22;31340;51.402;0.016;2023-03-30T16:27:14;19.50;90.30
44775;DHT22;31340;51.402;0.016;2023-03-30T16:29:42;19.60;90.50
44775;DHT22;31340;51.402;0.016;2023-03-30T16:32:09;19.70;90.50
44775;DHT22;31340;51.402;0.016;2023-03-30T16:34:37;19.70;90.40
44775;DHT22;31340;51.402;0.016;2023-03-30T16:37:08;19.70;90.50
44775;DHT22;31340;51.402;0.016;2023-03-30T16:39:35;19.70;90.70
44775;DHT22;31340;51.402;0.016;2023-03-30T16:42:03;19.60;90.80
44775;DHT22;31340;51.402;0.016;2023-03-30T16:44:31;19.60;91.00
44775;DHT22;31340;51.402;0.016;2023-03-30T16:46:59;19.60;91.30
44775;DHT22;31340;51.402;0.016;2023-03-30T16:49:27;19.50;90.90
44775;DHT22;31340;51.402;0.016;2023-03-30T16:51:54;19.40;91.10
44775;DHT22;31340;51.402;0.016;2023-03-30T16:54:24;19.30;91.40
44775;DHT22;31340;51.402;0.016;2023-03-30T16:56:59;19.10;91.60
44775;DHT22;31340;51.402;0.016;2023-03-30T16:59:28;19.00;91.90
44775;DHT22;31340;51.402;0.016;2023-03-30T17:01:57;18.80;92.10
44775;DHT22;31340;51.402;0.016;2023-03-30T17:04:25;18.70;92.30
44775;DHT22;31340;51.402;0.016;2023-03-30T17:06:53;18.60;92.50
44775;DHT22;31340;51.402;0.016;2023-03-30T17:09:21;18.40;92.60
44775;DHT22;31340;51.402;0.016;2023-03-30T17:11:49;18.30;92.70
44775;DHT22;31340;51.402;0.016;2023-03-30T17:14:18;18.10;93.00
44775;DHT22;31340;51.402;0.016;2023-03-30T17:16:47;18.00;93.00
44775;DHT22;31340;51.402;0.016;2023-03-30T17:19:14;17.90;93.20
44775;DHT22;31340;51.402;0.016;2023-03-30T17:21:42;17.70;93.40
44775;DHT22;31340;51.402;0.016;2023-03-30T17:24:12;17.60;93.60
44775;DHT22;31340;51.402;0.016;2023-03-30T17:26:41;17.40;94.00
44775;DHT22;31340;51.402;0.016;2023-03-30T17:29:10;17.20;94.30
44775;DHT22;31340;51.402;0.016;2023-03-30T17:31:37;17.10;94.40
44775;DHT22;31340;51.402;0.016;2023-03-30T17:34:06;17.00;94.70
44775;DHT22;31340;51.402;0.016;2023-03-30T17:36:34;16.90;94.90
44775;DHT22;31340;51.402;0.016;2023-03-30T17:39:02;16.70;95.10
44775;DHT22;31340;51.402;0.016;2023-03-30T17:41:34;16.60;95.30
44775;DHT22;31340;51.402;0.016;2023-03-30T17:44:02;16.50;95.40
44775;DHT22;31340;51.402;0.016;2023-03-30T17:46:31;16.30;95.60
44775;DHT22;31340;51.402;0.016;2023-03-30T17:48:58;16.20;95.90
44775;DHT22;31340;51.402;0.016;2023-03-30T17:51:26;16.10;96.20
44775;DHT22;31340;51.402;0.016;2023-03-30T17:53:54;16.00;96.40
44775;DHT22;31340;51.402;0.016;2023-03-30T17:56:22;15.90;96.60
44775;DHT22;31340;51.402;0.016;2023-03-30T17:58:49;15.80;96.90
44775;DHT22;31340;51.402;0.016;2023-03-30T18:01:19;15.80;97.20
44775;DHT22;31340;51.402;0.016;2023-03-30T18:03:47;15.70;97.30
44775;DHT22;31340;51.402;0.016;2023-03-30T18:06:15;15.60;97.60
44775;DHT22;31340;51.402;0.016;2023-03-30T18:08:42;15.50;97.80
44775;DHT22;31340;51.402;0.016;2023-03-30T18:11:10;15.40;98.00
44775;DHT22;31340;51.402;0.016;2023-03-30T18:13:37;15.40;98.10
44775;DHT22;31340;51.402;0.016;2023-03-30T18:16:05;15.30;98.20
44775;DHT22;31340;51.402;0.016;2023-03-30T18:18:33;15.20;98.30
44775;DHT22;31340;51.402;0.016;2023-03-30T18:21:02;15.20;98.40
44775;DHT22;31340;51.402;0.016;2023-03-30T18:23:32;15.10;98.50
44775;DHT22;31340;51.402;0.016;2023-03-30T18:26:01;15.10;98.60
44775;DHT22;31340;51.402;0.016;2023-03-30T18:28:30;15.00;98.70
44775;DHT22;31340;51.402;0.016;2023-03-30T18:30:58;15.00;98.70